createdAt,value
2022-09-29T00:01:17.532Z,97530.44
2022-09-29T00:03:45.194Z,97522.53
2022-09-29T00:06:18.740Z,97528.31
2022-09-29T00:08:47.119Z,97536.81
2022-09-29T00:11:21.008Z,97542.63
2022-09-29T00:13:49.594Z,97542.84
2022-09-29T00:16:17.240Z,97528.66
2022-09-29T00:18:44.834Z,97527.56
2022-09-29T00:21:22.553Z,97531.13
2022-09-29T00:23:51.167Z,97531.13
2022-09-29T00:26:22.980Z,97524.81
2022-09-29T00:28:55.683Z,97537.72
2022-09-29T00:31:25.109Z,97532.22
2022-09-29T00:33:53.219Z,97524.31
2022-09-29T00:36:23.757Z,97518.31
2022-09-29T00:38:55.302Z,97515.56
2022-09-29T00:41:31.070Z,97511.50
2022-09-29T00:44:06.116Z,97515.94
2022-09-29T00:47:01.963Z,97524.69
2022-09-29T00:49:51.889Z,97516.03
2022-09-29T00:52:28.321Z,97523.72
2022-09-29T00:55:17.369Z,97515.28
2022-09-29T00:58:24.836Z,97521.09
2022-09-29T01:00:52.792Z,97534.28
2022-09-29T01:03:24.326Z,97538.44
2022-09-29T01:06:27.707Z,97532.72
2022-09-29T01:09:04.072Z,97525.91
2022-09-29T01:11:32.389Z,97516.03
2022-09-29T01:14:07.673Z,97520.19
2022-09-29T01:16:37.582Z,97514.72
2022-09-29T01:19:11.657Z,97507.59
2022-09-29T01:22:17.301Z,97519.91
2022-09-29T01:24:59.398Z,97525.69
2022-09-29T01:27:38.723Z,97516.63
2022-09-29T01:30:39.408Z,97520.19
2022-09-29T01:33:09.747Z,97519.38
2022-09-29T01:36:11.430Z,97514.78
2022-09-29T01:39:03.370Z,97516.41
2022-09-29T01:41:57.004Z,97515.31
2022-09-29T01:44:42.993Z,97505.22
2022-09-29T01:47:38.595Z,97504.69
2022-09-29T01:50:16.748Z,97497.59
2022-09-29T01:52:51.954Z,97498.19
2022-09-29T01:55:25.940Z,97500.09
2022-09-29T01:58:13.879Z,97500.63
2022-09-29T02:00:51.309Z,97493.84
2022-09-29T02:03:41.012Z,97490.28
2022-09-29T02:06:16.081Z,97496.03
2022-09-29T02:08:55.818Z,97501.25
2022-09-29T02:11:23.973Z,97505.91
2022-09-29T02:14:24.377Z,97510.56
2022-09-29T02:17:12.100Z,97514.94
2022-09-29T02:19:43.370Z,97523.47
2022-09-29T02:22:11.035Z,97521.81
2022-09-29T02:24:38.665Z,97527.31
2022-09-29T02:27:07.434Z,97523.75
2022-09-29T02:29:36.627Z,97530.66
2022-09-29T02:32:10.715Z,97532.88
2022-09-29T02:34:43.784Z,97544.63
2022-09-29T02:37:36.995Z,97548.78
2022-09-29T02:40:44.468Z,97560.28
2022-09-29T02:44:01.180Z,97560.28
2022-09-29T02:47:03.507Z,97569.91
2022-09-29T02:50:17.384Z,97564.75
2022-09-29T02:53:17.435Z,97552.44
2022-09-29T02:56:18.942Z,97554.63
2022-09-29T02:59:09.879Z,97545.94
2022-09-29T03:01:52.379Z,97552.22
2022-09-29T03:04:23.015Z,97557.19
2022-09-29T03:06:50.896Z,97559.13
2022-09-29T03:09:21.581Z,97556.38
2022-09-29T03:11:49.686Z,97551.72
2022-09-29T03:14:17.180Z,97542.97
2022-09-29T03:16:44.986Z,97545.41
2022-09-29T03:19:12.586Z,97537.47
2022-09-29T03:21:40.082Z,97542.16
2022-09-29T03:24:07.879Z,97542.16
2022-09-29T03:26:38.744Z,97545.47
2022-09-29T03:29:06.662Z,97540.28
2022-09-29T03:31:34.619Z,97544.94
2022-09-29T03:34:02.284Z,97555.13
2022-09-29T03:36:30.881Z,97548.22
2022-09-29T03:38:58.403Z,97546.34
2022-09-29T03:41:26.295Z,97550.19
2022-09-29T03:43:53.722Z,97548.00
2022-09-29T03:46:21.524Z,97545.25
2022-09-29T03:48:48.987Z,97543.34
2022-09-29T03:51:16.831Z,97553.41
2022-09-29T03:53:44.351Z,97538.66
2022-09-29T03:56:11.839Z,97538.94
2022-09-29T03:58:39.436Z,97533.19
2022-09-29T04:01:07.858Z,97531.25
2022-09-29T04:03:35.386Z,97530.44
2022-09-29T04:06:02.839Z,97527.19
2022-09-29T04:08:30.828Z,97521.97
2022-09-29T04:10:58.402Z,97523.94
2022-09-29T04:13:25.772Z,97525.03
2022-09-29T04:15:57.493Z,97524.22
2022-09-29T04:18:25.012Z,97534.63
2022-09-29T04:20:52.550Z,97531.09
2022-09-29T04:23:20.020Z,97546.72
2022-09-29T04:25:51.000Z,97539.59
2022-09-29T04:28:18.525Z,97536.31
2022-09-29T04:30:46.188Z,97534.94
2022-09-29T04:33:13.658Z,97536.88
2022-09-29T04:35:41.087Z,97539.88
2022-09-29T04:38:08.941Z,97548.09
2022-09-29T04:40:37.148Z,97545.69
2022-09-29T04:43:05.911Z,97547.59
2022-09-29T04:45:33.687Z,97549.81
2022-09-29T04:48:01.420Z,97547.66
2022-09-29T04:50:29.341Z,97550.69
2022-09-29T04:52:57.200Z,97557.03
2022-09-29T04:55:24.955Z,97563.91
2022-09-29T04:57:52.499Z,97564.19
2022-09-29T05:00:21.556Z,97559.84
2022-09-29T05:02:51.103Z,97550.28
2022-09-29T05:05:18.759Z,97555.75
2022-09-29T05:07:46.300Z,97557.38
2022-09-29T05:10:13.757Z,97553.56
2022-09-29T05:12:41.467Z,97555.97
2022-09-29T05:15:09.848Z,97558.72
2022-09-29T05:17:37.234Z,97559.53
2022-09-29T05:20:06.198Z,97563.91
2022-09-29T05:22:35.293Z,97569.41
2022-09-29T05:31:09.067Z,97578.22
2022-09-29T06:04:15.345Z,97600.00
2022-09-29T06:06:48.134Z,97597.47
2022-09-29T06:09:26.286Z,97604.59
2022-09-29T06:37:36.713Z,97594.00
2022-09-29T06:40:11.928Z,97590.16
2022-09-29T06:42:42.815Z,97581.91
2022-09-29T06:45:12.033Z,97569.31
2022-09-29T06:47:42.010Z,97566.81
2022-09-29T06:50:41.561Z,97568.16
2022-09-29T06:53:15.221Z,97576.88
2022-09-29T06:55:46.074Z,97605.88
2022-09-29T06:58:15.305Z,97606.94
2022-09-29T07:00:49.912Z,97609.94
2022-09-29T07:03:20.890Z,97609.66
2022-09-29T07:06:15.129Z,97612.91
2022-09-29T07:08:42.200Z,97600.81
2022-09-29T07:11:12.623Z,97592.28
2022-09-29T07:13:49.319Z,97597.47
2022-09-29T07:16:21.408Z,97590.91
2022-09-29T07:18:51.737Z,97589.78
2022-09-29T07:21:20.489Z,97583.72
2022-09-29T07:23:48.773Z,97592.16
2022-09-29T07:26:19.789Z,97589.97
2022-09-29T07:28:49.044Z,97596.75
2022-09-29T07:31:24.647Z,97613.97
2022-09-29T07:33:53.491Z,97619.16
2022-09-29T07:36:24.307Z,97616.34
2022-09-29T07:38:53.274Z,97607.50
2022-09-29T07:41:27.890Z,97603.38
2022-09-29T07:46:41.861Z,97605.97
2022-09-29T07:49:09.911Z,97594.84
2022-09-29T07:51:38.647Z,97602.41
2022-09-29T07:54:06.920Z,97606.09
2022-09-29T07:56:37.490Z,97616.41
2022-09-29T07:59:06.058Z,97620.91
2022-09-29T08:01:36.276Z,97625.28
2022-09-29T08:04:05.644Z,97625.41
2022-09-29T08:06:37.169Z,97636.75
2022-09-29T08:09:13.989Z,97641.28
2022-09-29T08:11:45.565Z,97639.78
2022-09-29T08:14:15.103Z,97640.19
2022-09-29T08:16:44.453Z,97632.69
2022-09-29T08:21:40.222Z,97642.59
2022-09-29T08:24:10.910Z,97641.28
2022-09-29T08:26:43.853Z,97638.84
2022-09-29T08:29:17.745Z,97638.84
2022-09-29T08:31:46.915Z,97645.66
2022-09-29T09:08:17.170Z,97655.56
2022-09-29T09:38:40.884Z,97680.94
2022-09-29T09:41:11.305Z,97671.84
2022-09-29T09:43:47.776Z,97663.91
2022-09-29T09:46:34.493Z,97651.91
2022-09-29T09:49:27.038Z,97658.19
2022-09-29T09:52:19.073Z,97661.06
2022-09-29T09:55:25.281Z,97667.97
2022-09-29T09:58:15.148Z,97667.88
2022-09-29T10:00:50.089Z,97668.50
2022-09-29T10:03:19.009Z,97664.63
2022-09-29T10:05:51.336Z,97657.69
2022-09-29T10:08:45.084Z,97671.34
2022-09-29T10:11:33.502Z,97676.63
2022-09-29T10:14:16.634Z,97670.00
2022-09-29T16:30:09.716Z,97834.50
2022-09-29T16:40:38.105Z,97828.16
2022-09-29T17:09:56.014Z,97872.50
2022-09-29T19:29:04.558Z,97904.84
2022-09-29T20:01:01.741Z,97947.16
2022-09-29T20:03:34.110Z,97953.47
2022-09-29T20:06:05.359Z,97954.56
2022-09-29T20:20:41.469Z,97979.44
2022-09-29T20:31:51.097Z,98006.84
2022-09-29T21:40:20.175Z,98040.81
2022-09-29T21:42:56.639Z,98035.31
2022-09-29T21:45:34.395Z,98031.19
2022-09-29T21:48:12.848Z,98037.50
2022-09-29T21:50:44.341Z,98040.25
2022-09-29T22:19:22.438Z,98050.63
2022-09-29T22:21:56.315Z,98049.00
2022-09-29T22:24:28.838Z,98049.00
2022-09-29T22:26:57.974Z,98055.00
2022-09-29T22:32:25.954Z,98057.75
2022-09-29T22:49:39.905Z,98053.59
2022-09-29T22:52:07.938Z,98049.25
2022-09-29T22:58:54.503Z,98038.28
2022-09-29T23:01:23.131Z,98030.34
2022-09-29T23:06:54.035Z,98026.28
2022-09-29T23:09:28.702Z,98031.44
2022-09-29T23:17:56.598Z,98027.38
2022-09-29T23:20:25.669Z,98037.22
2022-09-29T23:22:56.118Z,98030.66
2022-09-29T23:39:57.035Z,98043.78
2022-09-29T23:54:20.103Z,98027.59
2022-09-29T23:57:01.062Z,98037.72
2022-09-29T23:59:45.542Z,98032.56
